Time;durP1;ratioP1;P1;durP2;ratioP2;P2;SDS_P1;SDS_P2;PMS_P1;PMS_P2;Temp;Humidity;BMP_temperature;BMP_pressure;BME280_temperature;BME280_humidity;BME280_pressure;Samples;Min_cycle;Max_cycle;Signal;HPM_P1;HPM_P2
2023/10/22 00:02:05;;;;;;;3.22;1.67;;;18.60;98.90;;;;;;5012282;28;20037;-79
2023/10/22 00:04:31;;;;;;;4.90;1.88;;;18.60;99.00;;;;;;5012874;28;20037;-79
2023/10/22 00:06:58;;;;;;;4.18;1.67;;;18.60;99.00;;;;;;5012408;28;20411;-79
2023/10/22 00:09:24;;;;;;;2.38;1.45;;;18.60;99.00;;;;;;5011946;28;20034;-79
2023/10/22 00:11:49;;;;;;;2.85;1.38;;;18.60;99.00;;;;;;5012771;28;20044;-79
2023/10/22 00:14:15;;;;;;;2.08;1.55;;;18.60;99.00;;;;;;5012300;28;20386;-81
2023/10/22 00:16:41;;;;;;;2.28;1.45;;;18.60;98.90;;;;;;5013363;28;20026;-81
2023/10/22 00:19:06;;;;;;;4.03;1.40;;;18.60;98.90;;;;;;5012550;28;20030;-83
2023/10/22 00:21:33;;;;;;;2.67;1.67;;;18.60;98.90;;;;;;5014057;28;20080;-80
2023/10/22 00:23:58;;;;;;;4.47;1.40;;;18.70;98.90;;;;;;5015404;28;20076;-82
2023/10/22 00:26:24;;;;;;;2.15;1.38;;;18.60;98.90;;;;;;5015617;28;20033;-80
2023/10/22 00:28:50;;;;;;;5.63;2.00;;;18.60;98.80;;;;;;5014525;28;20038;-82
2023/10/22 00:31:16;;;;;;;2.85;1.60;;;18.60;98.90;;;;;;5014542;28;21226;-80
2023/10/22 00:33:41;;;;;;;4.32;1.83;;;18.50;98.90;;;;;;5016869;28;20116;-80
2023/10/22 00:36:07;;;;;;;3.08;1.95;;;18.50;98.90;;;;;;5007821;28;20466;-80
2023/10/22 00:38:33;;;;;;;4.57;1.77;;;18.50;99.00;;;;;;5019447;28;20026;-81
2023/10/22 00:40:59;;;;;;;2.50;1.80;;;18.50;99.00;;;;;;5020054;28;20022;-82
2023/10/22 00:43:25;;;;;;;2.58;1.80;;;18.50;99.10;;;;;;5019407;28;20028;-79
2023/10/22 00:45:52;;;;;;;3.05;1.77;;;18.50;99.10;;;;;;5009974;28;20045;-80
2023/10/22 00:48:20;;;;;;;3.30;1.67;;;18.40;99.10;;;;;;5014273;28;20060;-80
2023/10/22 00:50:46;;;;;;;3.67;1.50;;;18.40;99.20;;;;;;5000216;28;20030;-80
2023/10/22 00:53:14;;;;;;;3.00;1.60;;;18.30;99.20;;;;;;5016235;28;20048;-80
2023/10/22 00:55:44;;;;;;;3.60;2.10;;;18.30;99.30;;;;;;5012639;28;20498;-80
2023/10/22 00:58:20;;;;;;;2.42;1.48;;;18.30;99.30;;;;;;5011194;28;20038;-80
2023/10/22 01:00:46;;;;;;;2.90;1.80;;;18.30;99.30;;;;;;5016015;28;20080;-80
2023/10/22 01:03:12;;;;;;;2.45;1.70;;;18.30;99.40;;;;;;5016280;28;20026;-80
2023/10/22 01:05:38;;;;;;;4.47;2.55;;;18.30;99.40;;;;;;5015769;28;20056;-80
2023/10/22 01:08:09;;;;;;;4.18;2.72;;;18.30;99.50;;;;;;5015049;28;20029;-79
2023/10/22 01:10:34;;;;;;;3.22;2.63;;;18.30;99.50;;;;;;5013808;28;20508;-80
2023/10/22 01:13:00;;;;;;;6.28;3.28;;;18.20;99.40;;;;;;5016206;28;20026;-81
2023/10/22 01:15:26;;;;;;;5.53;3.05;;;18.20;99.50;;;;;;5014845;28;20126;-80
2023/10/22 01:17:53;;;;;;;3.72;2.72;;;18.20;99.50;;;;;;5011477;28;20029;-80
2023/10/22 01:20:19;;;;;;;2.78;2.05;;;18.10;99.50;;;;;;5015004;28;20034;-82
2023/10/22 01:22:45;;;;;;;4.68;2.05;;;18.10;99.50;;;;;;5015652;28;20044;-80
2023/10/22 01:25:11;;;;;;;2.75;2.10;;;18.10;99.60;;;;;;5012831;28;20034;-80
2023/10/22 01:27:37;;;;;;;2.95;2.38;;;18.10;99.60;;;;;;5013567;28;20064;-79
2023/10/22 01:30:04;;;;;;;3.03;2.20;;;18.10;99.60;;;;;;5011734;28;20057;-80
2023/10/22 01:32:30;;;;;;;2.78;2.38;;;18.20;99.60;;;;;;5014394;28;20033;-80
2023/10/22 01:34:59;;;;;;;3.63;2.60;;;18.10;99.60;;;;;;5015166;28;20108;-80
2023/10/22 01:37:25;;;;;;;2.88;2.45;;;18.20;99.50;;;;;;5023066;28;20029;-80
2023/10/22 01:39:51;;;;;;;4.43;2.92;;;18.10;99.50;;;;;;5022570;28;20117;-81
2023/10/22 01:42:17;;;;;;;4.07;2.22;;;18.10;99.50;;;;;;5014367;28;20493;-80
2023/10/22 01:44:42;;;;;;;3.55;2.20;;;18.10;99.50;;;;;;5013181;28;20057;-80
2023/10/22 01:47:10;;;;;;;3.78;2.40;;;18.10;99.50;;;;;;5019206;28;20481;-80
2023/10/22 01:49:36;;;;;;;5.13;2.53;;;18.10;99.60;;;;;;5015147;28;20370;-80
2023/10/22 01:52:02;;;;;;;4.18;2.20;;;18.10;99.50;;;;;;5014768;28;20036;-81
2023/10/22 01:54:28;;;;;;;2.72;2.28;;;18.00;99.40;;;;;;5014293;28;20025;-80
2023/10/22 01:56:54;;;;;;;3.88;2.47;;;18.00;99.50;;;;;;5017427;28;20480;-80
2023/10/22 01:59:20;;;;;;;4.00;2.40;;;18.10;99.50;;;;;;5019419;28;20108;-80
2023/10/22 02:01:46;;;;;;;2.95;2.30;;;18.10;99.40;;;;;;5015018;28;20026;-81
2023/10/22 02:04:12;;;;;;;4.80;2.83;;;18.00;99.40;;;;;;5004131;28;20121;-80
2023/10/22 02:06:37;;;;;;;2.78;2.58;;;18.00;99.40;;;;;;5013942;28;20184;-80
2023/10/22 02:09:03;;;;;;;4.65;2.90;;;18.00;99.50;;;;;;5013944;28;20037;-80
2023/10/22 02:11:30;;;;;;;2.75;2.17;;;18.00;99.40;;;;;;5015055;28;20026;-80
2023/10/22 02:13:56;;;;;;;4.68;2.65;;;18.00;99.40;;;;;;5013915;28;20098;-81
2023/10/22 02:16:23;;;;;;;3.60;2.70;;;17.90;99.40;;;;;;5001198;28;20169;-79
2023/10/22 02:18:49;;;;;;;5.07;2.72;;;17.90;99.40;;;;;;5005456;28;20108;-79
2023/10/22 02:21:15;;;;;;;2.65;2.20;;;17.90;99.30;;;;;;5004695;28;20061;-79
2023/10/22 02:23:41;;;;;;;3.58;2.30;;;17.90;99.40;;;;;;5002491;28;20508;-78
2023/10/22 02:26:07;;;;;;;9.82;2.78;;;17.90;99.40;;;;;;5008082;28;20030;-79
2023/10/22 02:28:33;;;;;;;4.07;2.70;;;17.90;99.40;;;;;;5008546;28;20112;-79
2023/10/22 02:30:59;;;;;;;2.85;2.40;;;17.90;99.40;;;;;;5011951;28;20148;-79
2023/10/22 02:33:25;;;;;;;3.30;2.30;;;17.90;99.40;;;;;;5006271;28;20057;-78
2023/10/22 02:35:53;;;;;;;3.78;2.67;;;17.90;99.40;;;;;;5018084;28;20048;-78
2023/10/22 02:38:19;;;;;;;3.47;2.33;;;17.90;99.40;;;;;;5013442;28;20117;-78
2023/10/22 02:40:49;;;;;;;4.03;2.65;;;17.90;99.30;;;;;;5012830;28;20464;-78
2023/10/22 02:43:16;;;;;;;2.80;2.10;;;17.80;99.30;;;;;;5010369;28;20022;-79
2023/10/22 02:45:51;;;;;;;3.80;2.67;;;17.90;99.30;;;;;;5010719;28;20080;-78
2023/10/22 02:48:18;;;;;;;5.68;2.53;;;17.80;99.30;;;;;;5012856;28;20030;-79
2023/10/22 02:50:43;;;;;;;5.95;2.53;;;17.80;99.20;;;;;;5013638;28;20032;-79
2023/10/22 02:53:09;;;;;;;5.03;2.78;;;17.80;99.30;;;;;;5013423;28;20113;-79
2023/10/22 02:55:35;;;;;;;3.83;2.80;;;17.80;99.40;;;;;;5017508;28;20022;-79
2023/10/22 02:58:00;;;;;;;3.38;2.47;;;17.70;99.30;;;;;;5013312;28;20137;-79
2023/10/22 03:00:27;;;;;;;3.70;3.05;;;17.80;99.30;;;;;;5013335;28;20432;-79
2023/10/22 03:02:53;;;;;;;5.35;2.70;;;17.70;99.20;;;;;;5011139;28;20030;-79
2023/10/22 03:05:19;;;;;;;4.15;3.00;;;17.80;99.20;;;;;;5008147;28;20021;-79
2023/10/22 03:07:44;;;;;;;3.28;2.60;;;17.70;99.10;;;;;;5012530;28;20026;-80
2023/10/22 03:10:10;;;;;;;3.30;2.72;;;17.70;99.20;;;;;;5013929;28;20045;-80
2023/10/22 03:12:36;;;;;;;6.00;3.05;;;17.70;99.20;;;;;;5012004;28;20038;-81
2023/10/22 03:15:03;;;;;;;3.70;2.55;;;17.70;99.10;;;;;;5011763;28;20080;-81
2023/10/22 03:17:30;;;;;;;4.47;2.35;;;17.70;99.20;;;;;;5011959;28;20068;-80
2023/10/22 03:19:56;;;;;;;2.80;2.38;;;17.60;99.10;;;;;;5012952;28;20045;-80
2023/10/22 03:22:22;;;;;;;4.43;2.65;;;17.70;99.10;;;;;;5011942;28;20358;-80
2023/10/22 03:24:53;;;;;;;3.63;2.95;;;17.70;99.10;;;;;;5005952;28;20037;-80
2023/10/22 03:27:19;;;;;;;4.35;2.67;;;17.70;99.10;;;;;;5011842;28;20025;-80
2023/10/22 03:29:45;;;;;;;3.13;2.80;;;17.70;99.10;;;;;;5012717;28;20441;-79
2023/10/22 03:32:10;;;;;;;3.85;2.97;;;17.70;99.00;;;;;;5011841;28;20037;-80
2023/10/22 03:34:36;;;;;;;5.30;3.03;;;17.70;99.00;;;;;;5010412;28;20478;-79
2023/10/22 03:37:05;;;;;;;3.30;2.70;;;17.70;98.90;;;;;;5012294;28;20033;-80
2023/10/22 03:39:32;;;;;;;3.40;2.60;;;17.70;98.90;;;;;;5013375;28;20527;-80
2023/10/22 03:41:58;;;;;;;4.72;2.92;;;17.70;98.90;;;;;;5013088;28;20046;-80
2023/10/22 03:44:24;;;;;;;3.72;3.08;;;17.70;98.80;;;;;;5012196;28;20096;-80
2023/10/22 03:46:49;;;;;;;4.30;3.35;;;17.70;98.80;;;;;;5009794;28;20117;-80
2023/10/22 03:49:15;;;;;;;4.93;3.58;;;17.70;98.80;;;;;;5013095;28;20538;-80
2023/10/22 03:51:40;;;;;;;3.78;3.05;;;17.60;98.90;;;;;;5013196;28;20026;-81
2023/10/22 03:54:06;;;;;;;4.75;3.55;;;17.70;98.90;;;;;;5008010;28;20057;-80
2023/10/22 03:56:34;;;;;;;5.70;3.22;;;17.60;99.00;;;;;;5008098;28;20064;-80
2023/10/22 03:59:00;;;;;;;3.83;3.08;;;17.60;99.00;;;;;;5013420;28;20458;-80
2023/10/22 04:01:26;;;;;;;5.85;3.67;;;17.60;98.90;;;;;;5011546;28;20420;-81
2023/10/22 04:03:52;;;;;;;6.65;3.53;;;17.60;98.80;;;;;;5013069;28;20378;-81
2023/10/22 04:06:18;;;;;;;5.32;3.38;;;17.60;98.80;;;;;;5014457;28;20030;-81
2023/10/22 04:08:44;;;;;;;4.60;3.38;;;17.60;98.80;;;;;;5013552;28;20080;-81
2023/10/22 04:11:09;;;;;;;4.55;3.53;;;17.60;98.70;;;;;;5014583;28;20108;-81
2023/10/22 04:13:35;;;;;;;5.38;3.80;;;17.60;98.70;;;;;;5015490;28;20039;-81
2023/10/22 04:16:01;;;;;;;4.40;3.60;;;17.50;98.70;;;;;;5010889;28;20026;-81
2023/10/22 04:18:27;;;;;;;4.20;3.47;;;17.50;98.80;;;;;;5016291;28;20038;-81
2023/10/22 04:20:52;;;;;;;4.60;3.42;;;17.50;98.90;;;;;;5016255;28;20079;-80
2023/10/22 04:23:19;;;;;;;4.25;3.47;;;17.50;98.90;;;;;;5017206;28;20026;-81
2023/10/22 04:25:45;;;;;;;5.05;3.70;;;17.50;98.80;;;;;;5014462;28;20026;-81
2023/10/22 04:28:12;;;;;;;4.60;3.88;;;17.50;98.70;;;;;;5011816;28;20026;-79
2023/10/22 04:30:39;;;;;;;4.03;3.45;;;17.50;98.80;;;;;;5019017;28;20057;-78
2023/10/22 04:33:06;;;;;;;3.80;3.33;;;17.50;99.00;;;;;;5018755;28;20067;-79
2023/10/22 04:35:33;;;;;;;5.18;3.30;;;17.40;98.80;;;;;;5016821;28;20343;-81
2023/10/22 04:38:00;;;;;;;4.57;3.55;;;17.40;98.90;;;;;;5012246;28;20033;-81
2023/10/22 04:40:31;;;;;;;4.30;3.55;;;17.40;98.90;;;;;;5016139;28;20030;-81
2023/10/22 04:42:59;;;;;;;3.75;3.17;;;17.40;98.80;;;;;;5016434;28;20113;-82
2023/10/22 04:45:26;;;;;;;3.60;3.03;;;17.40;98.80;;;;;;5017422;28;20018;-82
2023/10/22 04:47:53;;;;;;;4.53;2.97;;;17.40;98.80;;;;;;5015550;28;20034;-82
2023/10/22 04:50:19;;;;;;;7.30;3.08;;;17.40;98.80;;;;;;5015195;28;20026;-80
2023/10/22 04:52:44;;;;;;;5.28;3.10;;;17.40;98.70;;;;;;5015107;28;20032;-80
2023/10/22 04:55:11;;;;;;;3.65;3.22;;;17.40;98.60;;;;;;5017129;28;20108;-79
2023/10/22 04:57:37;;;;;;;3.42;2.80;;;17.30;98.60;;;;;;5016258;28;20029;-79
2023/10/22 05:00:07;;;;;;;4.43;3.28;;;17.30;98.70;;;;;;5015092;28;20075;-79
2023/10/22 05:02:33;;;;;;;3.75;3.05;;;17.40;98.70;;;;;;5016002;28;20034;-80
2023/10/22 05:04:59;;;;;;;3.08;2.60;;;17.30;98.70;;;;;;5014540;28;20050;-82
2023/10/22 05:07:24;;;;;;;5.18;2.90;;;17.30;98.60;;;;;;5010006;28;20509;-81
2023/10/22 05:09:50;;;;;;;3.33;2.80;;;17.30;98.60;;;;;;5014097;28;20378;-81
2023/10/22 05:12:16;;;;;;;5.03;2.90;;;17.30;98.60;;;;;;5016097;28;20030;-79
2023/10/22 05:14:42;;;;;;;3.33;2.83;;;17.30;98.60;;;;;;5019985;28;20040;-82
2023/10/22 05:17:08;;;;;;;4.32;3.45;;;17.30;98.60;;;;;;5013569;28;20037;-82
2023/10/22 05:19:34;;;;;;;5.68;2.90;;;17.30;98.70;;;;;;5014900;28;20041;-83
2023/10/22 05:22:00;;;;;;;3.13;2.83;;;17.20;98.70;;;;;;5015281;28;20060;-82
2023/10/22 05:24:26;;;;;;;3.05;2.75;;;17.20;98.70;;;;;;5018641;28;20520;-82
2023/10/22 05:26:52;;;;;;;3.30;2.88;;;17.20;98.70;;;;;;5010620;28;20474;-83
2023/10/22 05:29:18;;;;;;;4.32;2.92;;;17.20;98.70;;;;;;5012586;28;20062;-80
2023/10/22 05:31:44;;;;;;;4.10;3.47;;;17.20;98.70;;;;;;5004697;28;20485;-79
2023/10/22 05:34:09;;;;;;;4.07;2.70;;;17.20;98.70;;;;;;5014491;28;20397;-79
2023/10/22 05:36:35;;;;;;;4.25;2.70;;;17.20;98.70;;;;;;5014651;28;20036;-79
2023/10/22 05:39:02;;;;;;;4.15;3.17;;;17.20;98.70;;;;;;5013781;28;20034;-78
2023/10/22 05:41:28;;;;;;;3.75;3.00;;;17.20;98.70;;;;;;5002933;28;20023;-78
2023/10/22 05:43:56;;;;;;;3.17;2.88;;;17.10;98.70;;;;;;5013442;28;20036;-82
2023/10/22 05:46:23;;;;;;;3.33;2.65;;;17.10;98.70;;;;;;5023736;28;20025;-82
2023/10/22 05:48:49;;;;;;;6.03;2.83;;;17.10;98.70;;;;;;5013870;28;20036;-79
2023/10/22 05:51:15;;;;;;;4.07;3.00;;;17.00;98.70;;;;;;5014329;28;20057;-80
2023/10/22 05:53:40;;;;;;;7.85;4.00;;;17.00;98.70;;;;;;5013542;28;20456;-80
2023/10/22 05:56:06;;;;;;;6.90;4.38;;;17.00;98.70;;;;;;5015923;28;20509;-79
2023/10/22 05:58:32;;;;;;;6.50;4.15;;;16.90;98.70;;;;;;5024161;28;20512;-80
2023/10/22 06:00:57;;;;;;;6.10;4.00;;;16.90;98.80;;;;;;5015033;28;20030;-79
2023/10/22 06:03:23;;;;;;;6.18;3.85;;;16.90;98.70;;;;;;5013782;28;20022;-79
2023/10/22 06:05:49;;;;;;;4.25;3.85;;;16.90;98.70;;;;;;5015526;28;20084;-79
2023/10/22 06:08:14;;;;;;;5.47;4.15;;;16.90;98.70;;;;;;5014734;28;20072;-79
2023/10/22 06:10:41;;;;;;;4.82;4.13;;;16.90;98.60;;;;;;5015906;28;20109;-81
2023/10/22 06:13:07;;;;;;;4.75;3.85;;;16.90;98.60;;;;;;5013904;28;20030;-84
2023/10/22 06:15:38;;;;;;;4.65;3.20;;;16.90;98.60;;;;;;5010786;28;20033;-84
2023/10/22 06:18:05;;;;;;;3.83;3.22;;;16.90;98.50;;;;;;5006349;28;20045;-83
2023/10/22 06:20:31;;;;;;;3.85;3.03;;;16.80;98.50;;;;;;5011570;28;20474;-84
2023/10/22 06:22:57;;;;;;;3.38;3.03;;;16.80;98.60;;;;;;5013009;28;20025;-83
2023/10/22 06:25:23;;;;;;;4.43;2.80;;;16.80;98.90;;;;;;5013760;28;20034;-83
2023/10/22 06:27:50;;;;;;;3.90;2.72;;;16.80;99.00;;;;;;5017719;28;20033;-88
2023/10/22 06:30:22;;;;;;;4.70;2.40;;;16.90;98.60;;;;;;5012933;28;20054;-89
2023/10/22 06:32:49;;;;;;;3.42;2.50;;;16.90;98.50;;;;;;5005900;28;20025;-85
2023/10/22 06:35:15;;;;;;;3.22;2.78;;;16.90;98.60;;;;;;5003094;28;20117;-81
2023/10/22 06:37:41;;;;;;;3.05;2.58;;;17.00;98.60;;;;;;5007661;28;20483;-77
2023/10/22 06:40:07;;;;;;;5.13;2.90;;;17.00;98.60;;;;;;5014185;28;20026;-81
2023/10/22 06:42:33;;;;;;;3.58;2.97;;;17.00;98.50;;;;;;5010241;28;20026;-78
2023/10/22 06:45:00;;;;;;;3.65;2.75;;;17.00;98.50;;;;;;5009580;28;20159;-78
2023/10/22 06:47:25;;;;;;;3.92;3.08;;;17.00;98.50;;;;;;5013153;28;20026;-80
2023/10/22 06:49:52;;;;;;;2.85;2.50;;;17.00;98.50;;;;;;5012359;28;20034;-81
2023/10/22 06:52:19;;;;;;;2.85;2.55;;;17.00;98.50;;;;;;5013781;28;20030;-82
2023/10/22 06:54:46;;;;;;;2.80;2.60;;;17.00;98.60;;;;;;5013302;28;20199;-82
2023/10/22 06:57:12;;;;;;;2.67;2.25;;;17.10;98.70;;;;;;5013007;28;20034;-82
2023/10/22 06:59:38;;;;;;;2.78;2.38;;;17.10;98.70;;;;;;5013147;28;20109;-82
2023/10/22 07:02:03;;;;;;;4.88;2.47;;;17.20;98.70;;;;;;5015576;28;20044;-82
2023/10/22 07:04:29;;;;;;;3.28;2.25;;;17.20;98.70;;;;;;5018652;28;20025;-79
2023/10/22 07:06:55;;;;;;;6.93;2.38;;;17.20;98.70;;;;;;5013388;28;20034;-82
2023/10/22 07:09:21;;;;;;;2.88;2.58;;;17.30;98.80;;;;;;5012826;28;20477;-81
2023/10/22 07:11:46;;;;;;;3.63;2.60;;;17.30;98.80;;;;;;4997729;28;20108;-82
2023/10/22 07:14:12;;;;;;;3.83;2.35;;;17.40;98.80;;;;;;5014007;28;20081;-82
2023/10/22 07:16:38;;;;;;;2.40;2.20;;;17.40;98.80;;;;;;5014324;28;20034;-82
2023/10/22 07:19:04;;;;;;;3.78;2.80;;;17.40;98.80;;;;;;5013837;28;20025;-82
2023/10/22 07:21:29;;;;;;;3.75;3.08;;;17.50;98.80;;;;;;5007919;28;20120;-81
2023/10/22 07:23:55;;;;;;;3.70;3.00;;;17.50;98.90;;;;;;5033244;28;20030;-81
2023/10/22 07:26:21;;;;;;;3.42;2.70;;;17.50;99.00;;;;;;5033591;28;20059;-82
2023/10/22 07:28:49;;;;;;;6.50;3.28;;;17.60;99.00;;;;;;5033334;28;20422;-81
2023/10/22 07:31:17;;;;;;;5.45;3.58;;;17.70;99.10;;;;;;5025495;28;20025;-81
2023/10/22 07:33:43;;;;;;;3.40;2.60;;;17.80;99.20;;;;;;4996260;28;20030;-81
2023/10/22 07:36:09;;;;;;;3.85;2.97;;;17.80;99.10;;;;;;5013653;28;20029;-81
2023/10/22 07:38:37;;;;;;;3.13;2.35;;;17.90;99.00;;;;;;5013179;28;20038;-81
2023/10/22 07:41:02;;;;;;;4.95;2.70;;;18.00;99.00;;;;;;5008981;28;20026;-81
2023/10/22 07:43:29;;;;;;;3.80;2.85;;;18.10;99.00;;;;;;5015749;28;20120;-82
2023/10/22 07:46:00;;;;;;;2.90;2.30;;;18.20;98.90;;;;;;5013046;28;20022;-81
2023/10/22 07:48:25;;;;;;;3.22;2.03;;;18.30;98.90;;;;;;5013844;28;20331;-81
2023/10/22 07:50:51;;;;;;;1.70;1.60;;;18.40;98.80;;;;;;5013784;28;20038;-81
2023/10/22 07:53:17;;;;;;;2.75;1.98;;;18.50;98.80;;;;;;5013050;28;20042;-81
2023/10/22 07:55:45;;;;;;;3.45;1.88;;;18.60;98.70;;;;;;4993350;28;20047;-81
2023/10/22 07:58:11;;;;;;;2.22;2.00;;;18.70;98.70;;;;;;4993733;28;20018;-81
2023/10/22 08:00:37;;;;;;;3.10;2.20;;;18.80;98.60;;;;;;4993964;28;20027;-82
2023/10/22 08:03:03;;;;;;;2.67;1.80;;;18.90;98.40;;;;;;5013994;28;20508;-82
2023/10/22 08:05:30;;;;;;;4.38;2.20;;;19.10;98.30;;;;;;5012766;28;20160;-81
2023/10/22 08:07:55;;;;;;;2.72;1.90;;;19.20;98.10;;;;;;5004180;28;20032;-81
2023/10/22 08:10:21;;;;;;;3.85;2.53;;;19.30;98.10;;;;;;5009384;28;20101;-81
2023/10/22 08:12:47;;;;;;;2.00;1.80;;;19.40;97.90;;;;;;5016529;28;20413;-81
2023/10/22 08:15:12;;;;;;;2.30;2.10;;;19.50;97.70;;;;;;4993662;28;20399;-82
2023/10/22 08:17:38;;;;;;;2.38;2.10;;;19.60;97.70;;;;;;4993857;28;20034;-81
2023/10/22 08:20:04;;;;;;;5.32;2.35;;;19.70;97.50;;;;;;4992396;28;20038;-82
2023/10/22 08:22:30;;;;;;;2.53;1.85;;;19.90;97.30;;;;;;5005481;28;20478;-83
2023/10/22 08:24:55;;;;;;;2.33;1.67;;;20.00;97.10;;;;;;5000693;28;20042;-83
2023/10/22 08:27:21;;;;;;;3.53;2.15;;;20.20;96.90;;;;;;4994358;28;20037;-83
2023/10/22 08:29:47;;;;;;;2.47;1.95;;;20.30;96.80;;;;;;5006589;28;20046;-83
2023/10/22 08:32:12;;;;;;;3.63;2.20;;;20.40;96.50;;;;;;5002948;28;20036;-83
2023/10/22 08:34:38;;;;;;;3.22;1.77;;;20.50;96.40;;;;;;5002888;28;20045;-83
2023/10/22 08:37:04;;;;;;;5.38;2.25;;;20.60;96.30;;;;;;5012191;28;20033;-82
2023/10/22 08:39:30;;;;;;;3.95;2.30;;;20.70;96.30;;;;;;5012559;28;20117;-83
2023/10/22 08:42:07;;;;;;;4.55;2.42;;;20.80;96.10;;;;;;5027448;28;20025;-83
2023/10/22 08:44:36;;;;;;;2.55;2.00;;;21.00;95.80;;;;;;5001966;28;20030;-83
2023/10/22 08:47:03;;;;;;;3.90;2.20;;;21.10;95.90;;;;;;5012116;28;20387;-83
2023/10/22 08:49:30;;;;;;;3.80;2.35;;;21.30;95.80;;;;;;5011919;28;20544;-83
2023/10/22 08:51:56;;;;;;;4.20;2.53;;;21.40;95.50;;;;;;5015482;28;20042;-83
2023/10/22 08:54:22;;;;;;;7.18;2.05;;;21.60;95.20;;;;;;4999435;28;20034;-82
2023/10/22 08:56:49;;;;;;;5.68;2.22;;;21.70;94.90;;;;;;5004973;28;20029;-82
2023/10/22 08:59:14;;;;;;;3.78;2.15;;;21.80;94.80;;;;;;5015639;28;20026;-79
2023/10/22 09:01:40;;;;;;;4.47;1.92;;;21.90;94.90;;;;;;5013169;28;20477;-79
2023/10/22 09:04:06;;;;;;;3.92;2.05;;;22.00;94.60;;;;;;5002079;28;20034;-79
2023/10/22 09:06:31;;;;;;;4.15;2.17;;;22.20;94.50;;;;;;5024544;28;20021;-79
2023/10/22 09:08:57;;;;;;;3.15;2.20;;;22.30;94.20;;;;;;5031730;28;20049;-79
2023/10/22 09:11:24;;;;;;;3.78;2.38;;;22.40;93.80;;;;;;5031122;28;20401;-79
2023/10/22 09:13:50;;;;;;;3.97;1.85;;;22.60;93.60;;;;;;5032081;28;20083;-79
2023/10/22 09:16:33;;;;;;;4.30;2.45;;;22.70;93.40;;;;;;5031722;28;20033;-79
2023/10/22 09:19:01;;;;;;;5.63;2.30;;;22.80;93.00;;;;;;5032826;28;20025;-79
2023/10/22 09:21:43;;;;;;;2.83;2.00;;;22.90;92.70;;;;;;5016774;28;20581;-79
2023/10/22 09:24:09;;;;;;;5.47;2.10;;;23.10;92.70;;;;;;5033099;28;20029;-79
2023/10/22 09:26:43;;;;;;;6.05;2.35;;;23.20;92.60;;;;;;5009431;28;20021;-80
2023/10/22 09:29:09;;;;;;;3.72;2.45;;;23.40;92.40;;;;;;5007382;28;20057;-83
2023/10/22 09:31:35;;;;;;;4.38;2.08;;;23.50;92.20;;;;;;5016377;28;20030;-79
2023/10/22 09:34:01;;;;;;;4.55;1.90;;;23.50;92.00;;;;;;5011716;28;20441;-80
2023/10/22 09:36:27;;;;;;;4.20;1.80;;;23.70;92.00;;;;;;5009566;28;20026;-79
2023/10/22 09:38:53;;;;;;;4.85;2.00;;;23.80;91.80;;;;;;5010722;28;20436;-80
2023/10/22 09:41:29;;;;;;;4.47;2.17;;;23.90;91.70;;;;;;5012428;28;20040;-80
2023/10/22 09:43:57;;;;;;;2.90;1.77;;;24.00;91.30;;;;;;5007849;28;20034;-80
2023/10/22 09:46:27;;;;;;;5.82;1.67;;;24.00;91.50;;;;;;5012322;28;20034;-79
2023/10/22 09:48:59;;;;;;;3.88;1.45;;;24.10;91.30;;;;;;5015822;28;20463;-80
2023/10/22 09:51:30;;;;;;;4.47;2.28;;;24.10;91.00;;;;;;5010932;28;20053;-80
2023/10/22 09:53:57;;;;;;;3.47;1.55;;;24.10;90.40;;;;;;4998032;28;20030;-79
2023/10/22 09:56:23;;;;;;;4.38;2.00;;;24.10;90.80;;;;;;5013715;28;20088;-81
2023/10/22 09:58:58;;;;;;;3.33;1.60;;;24.30;90.80;;;;;;5016833;28;20041;-80
2023/10/22 10:01:26;;;;;;;4.10;1.98;;;24.40;90.50;;;;;;5035289;28;20029;-81
2023/10/22 10:03:54;;;;;;;2.60;1.65;;;24.50;90.40;;;;;;5025157;28;20492;-80
2023/10/22 10:06:21;;;;;;;3.33;1.63;;;24.60;90.20;;;;;;5004228;28;20062;-80
2023/10/22 10:08:48;;;;;;;5.88;2.25;;;24.70;90.20;;;;;;5001260;28;20046;-81
2023/10/22 10:11:15;;;;;;;4.10;2.75;;;24.80;89.80;;;;;;5011248;28;20032;-81
2023/10/22 10:13:41;;;;;;;3.55;2.22;;;24.90;89.20;;;;;;5014118;28;20044;-80
2023/10/22 10:16:08;;;;;;;4.25;2.20;;;24.90;89.40;;;;;;5008343;28;20026;-81
2023/10/22 10:19:08;;;;;;;4.22;2.15;;;25.00;88.00;;;;;;5010859;28;20034;-81
2023/10/22 10:21:39;;;;;;;6.45;2.63;;;25.10;88.20;;;;;;5014075;28;20022;-81
2023/10/22 10:24:19;;;;;;;5.03;1.65;;;25.10;87.10;;;;;;5013529;28;20044;-81
2023/10/22 10:26:46;;;;;;;2.55;1.80;;;25.00;87.60;;;;;;5011409;28;20091;-82
2023/10/22 10:29:19;;;;;;;5.38;1.90;;;25.10;88.30;;;;;;5013648;28;20504;-82
2023/10/22 10:31:51;;;;;;;4.47;1.20;;;25.20;87.40;;;;;;5003625;28;20030;-82
2023/10/22 10:34:39;;;;;;;3.70;1.08;;;25.30;87.20;;;;;;5013554;28;20045;-82
2023/10/22 10:37:12;;;;;;;2.55;1.40;;;25.40;86.10;;;;;;5010905;28;20385;-82
2023/10/22 10:39:38;;;;;;;1.98;1.30;;;25.40;85.10;;;;;;5013364;28;20060;-82
2023/10/22 10:42:04;;;;;;;5.38;1.10;;;25.40;84.70;;;;;;5012321;28;20030;-81
2023/10/22 10:44:30;;;;;;;2.88;1.02;;;25.40;83.10;;;;;;5008129;28;20054;-82
2023/10/22 10:47:21;;;;;;;1.90;0.73;;;25.50;83.40;;;;;;5009993;28;20068;-81
2023/10/22 10:49:59;;;;;;;2.05;1.05;;;25.70;83.10;;;;;;5004555;28;20113;-81
2023/10/22 10:52:26;;;;;;;3.80;1.25;;;25.90;82.50;;;;;;5006471;28;20021;-81
2023/10/22 10:55:20;;;;;;;1.58;0.88;;;26.10;82.60;;;;;;5014408;28;20441;-81
2023/10/22 10:57:51;;;;;;;2.60;1.02;;;26.20;81.30;;;;;;4999094;28;20041;-80
2023/10/22 11:00:28;;;;;;;4.75;1.38;;;26.30;81.50;;;;;;5000526;28;20137;-81
2023/10/22 11:02:57;;;;;;;3.92;1.88;;;26.50;81.60;;;;;;5012608;28;20022;-81
2023/10/22 11:05:38;;;;;;;2.80;1.58;;;26.70;81.40;;;;;;5015196;28;20030;-81
2023/10/22 11:08:12;;;;;;;2.42;1.40;;;26.70;81.30;;;;;;4994379;28;20053;-80
2023/10/22 11:10:37;;;;;;;3.08;1.60;;;26.80;81.90;;;;;;5001100;28;20035;-80
2023/10/22 11:13:06;;;;;;;7.03;1.40;;;26.90;81.40;;;;;;5011333;28;20425;-81
2023/10/22 11:15:37;;;;;;;3.53;1.15;;;27.10;80.50;;;;;;5005844;28;20048;-80
2023/10/22 11:18:07;;;;;;;3.33;1.33;;;27.20;78.30;;;;;;5005556;28;20044;-83
2023/10/22 11:20:34;;;;;;;3.38;1.17;;;27.40;77.40;;;;;;5006257;28;20501;-85
2023/10/22 11:23:00;;;;;;;3.45;1.00;;;27.60;76.80;;;;;;5011804;28;20032;-85
2023/10/22 11:25:27;;;;;;;2.45;0.95;;;28.10;76.20;;;;;;5008241;28;20030;-87
2023/10/22 11:27:54;;;;;;;3.17;0.80;;;29.00;72.90;;;;;;5002342;28;20033;-86
2023/10/22 11:30:36;;;;;;;2.97;1.08;;;30.00;70.80;;;;;;5010152;28;20048;-89
2023/10/22 11:33:04;;;;;;;3.03;0.90;;;30.90;68.60;;;;;;5013551;28;20022;-87
2023/10/22 11:35:30;;;;;;;2.22;1.10;;;31.80;67.70;;;;;;5012676;28;20040;-84
2023/10/22 11:37:57;;;;;;;3.05;1.08;;;32.60;62.30;;;;;;5011958;28;20455;-84
2023/10/22 11:40:24;;;;;;;1.58;1.05;;;33.00;63.00;;;;;;5007177;28;20389;-84
2023/10/22 11:42:53;;;;;;;1.63;0.73;;;33.30;61.10;;;;;;5008428;28;20053;-83
2023/10/22 11:45:19;;;;;;;3.67;0.93;;;33.70;59.70;;;;;;5017596;28;20025;-83
2023/10/22 11:47:45;;;;;;;2.10;0.85;;;34.10;59.50;;;;;;5010522;28;20363;-81
2023/10/22 11:50:14;;;;;;;1.45;0.60;;;34.40;58.10;;;;;;5011005;28;20080;-81
2023/10/22 11:52:52;;;;;;;3.17;0.80;;;34.80;56.80;;;;;;5014606;28;20030;-81
2023/10/22 11:55:19;;;;;;;3.88;1.80;;;35.00;54.80;;;;;;5006228;28;20040;-88
2023/10/22 11:57:46;;;;;;;5.75;1.95;;;35.10;56.50;;;;;;5007652;28;20065;-87
2023/10/22 12:00:12;;;;;;;4.80;2.22;;;35.20;57.20;;;;;;5009804;28;20041;-88
2023/10/22 12:02:42;;;;;;;5.53;1.83;;;35.20;56.70;;;;;;5015831;28;20033;-88
2023/10/22 12:05:09;;;;;;;5.63;2.10;;;35.10;57.10;;;;;;5012435;28;20474;-88
2023/10/22 12:07:35;;;;;;;5.72;2.00;;;35.00;56.00;;;;;;5015018;28;20478;-89
2023/10/22 12:10:00;;;;;;;3.67;1.80;;;34.90;56.30;;;;;;5027283;28;20048;-88
2023/10/22 12:12:26;;;;;;;5.55;1.90;;;34.70;56.80;;;;;;5013096;28;20492;-87
2023/10/22 12:14:52;;;;;;;4.13;2.03;;;34.40;57.20;;;;;;5015178;28;20041;-88
2023/10/22 12:17:18;;;;;;;4.70;1.85;;;34.00;57.40;;;;;;5010510;28;20021;-89
2023/10/22 12:19:44;;;;;;;3.58;1.42;;;33.70;58.40;;;;;;5009046;28;20494;-87
2023/10/22 12:22:09;;;;;;;4.50;1.92;;;33.50;58.30;;;;;;5007123;28;20425;-88
2023/10/22 12:24:35;;;;;;;5.80;1.80;;;33.20;58.40;;;;;;5011079;28;20472;-88
2023/10/22 12:27:01;;;;;;;6.47;2.33;;;33.00;58.50;;;;;;5010936;28;20488;-88
2023/10/22 12:29:26;;;;;;;5.15;1.80;;;32.90;59.10;;;;;;5097158;23;20059;-87
2023/10/22 12:31:52;;;;;;;5.55;2.58;;;32.80;59.30;;;;;;5014175;28;20038;-88
2023/10/22 12:34:18;;;;;;;3.63;1.90;;;32.80;59.40;;;;;;5013484;28;20029;-88
2023/10/22 12:36:44;;;;;;;5.05;2.50;;;32.90;59.10;;;;;;5013809;28;20025;-89
2023/10/22 12:39:10;;;;;;;3.85;2.28;;;33.00;59.10;;;;;;5006149;28;20038;-87
2023/10/22 12:41:36;;;;;;;8.40;2.22;;;33.10;58.50;;;;;;5008188;28;20064;-88
2023/10/22 12:44:03;;;;;;;3.60;1.80;;;33.10;59.10;;;;;;5007349;28;20062;-89
2023/10/22 12:46:29;;;;;;;3.53;1.92;;;33.10;58.40;;;;;;5012169;28;20540;-89
2023/10/22 12:48:55;;;;;;;4.07;1.70;;;33.00;58.10;;;;;;4998953;28;20122;-87